This is the latest recevied weather packets stored in our database for station/object SV2BZQ-2. If no packets are shown the sender has not sent any weather packets the latest 10 day(s).
| Time | Temp. | Humidity | Pressure | Rain* | Wind** | Luminosity | Snow |
|---|---|---|---|---|---|---|---|
| 1777418955 | 12.22° C | 89% | 1015.7 hPa | 0 mm | - | 0 W/m² | - |
| 1777418344 | 12.22° C | 89% | 1015.8 hPa | 0 mm | - | 0 W/m² | - |
| 1777417754 | 12.78° C | 88% | 1015.8 hPa | 0 mm | - | 0 W/m² | - |
| 1777417430 | 12.78° C | 88% | 1015.8 hPa | 0 mm | - | 0 W/m² | - |
| 1777411992 | 15.56° C | 85% | 1016 hPa | 0 mm | - | 0 W/m² | - |
| 1777410793 | 15.56° C | 86% | 1015.8 hPa | 0 mm | - | 0 W/m² | - |
| 1777407084 | 17.78° C | 80% | 1014.6 hPa | 0 mm | - | 0 W/m² | - |
| 1777407075 | 16.11° C | 85% | 1015.5 hPa | 0 mm | - | 0 W/m² | - |
| 1777406353 | 16.11° C | 83% | 1015.2 hPa | 0 mm | - | 0 W/m² | - |
| 1777405964 | 16.11° C | 84% | 1015.6 hPa | 0 mm | - | 0 W/m² | - |
| 1777405433 | 16.11° C | 83% | 1015.5 hPa | 0 mm | - | 0 W/m² | - |
| 1777401789 | 16.67° C | 82% | 1014.9 hPa | 0 mm | - | 0 W/m² | - |
| 1777401566 | 16.67° C | 82% | 1014.9 hPa | 0 mm | - | 0 W/m² | - |
| 1777399050 | 17.78° C | 78% | 1014.4 hPa | 0 mm | - | 0 W/m² | - |
| 1777396588 | 18.33° C | 76% | 1014.1 hPa | 0 mm | - | 7 W/m² | - |
| 1777393307 | 20° C | 71% | 1014.1 hPa | 0 mm | - | 123 W/m² | - |
| 1777392306 | 20.56° C | 70% | 1014 hPa | 0 mm | - | 163 W/m² | - |
| 1777392011 | 20.56° C | 70% | 1013.9 hPa | 0 mm | - | 165 W/m² | - |
| 1777391703 | 20.56° C | 69% | 1014 hPa | 0 mm | - | 192 W/m² | - |
| 1777391284 | 21.11° C | 63% | 1013.8 hPa | 0 mm | - | 292 W/m² | - |
| 1777390229 | 21.11° C | 66% | 1013.8 hPa | 0 mm | - | 276 W/m² | - |
| 1777389269 | 22.22° C | 60% | 1014.1 hPa | 0 mm | - | 480 W/m² | - |
| 1777388097 | 21.67° C | 61% | 1013.9 hPa | 0 mm | - | 343 W/m² | - |
| 1777384137 | 21.67° C | 60% | 1014.4 hPa | 0 mm | - | 568 W/m² | - |
| 1777382930 | 21.67° C | 58% | 1014.5 hPa | 0 mm | - | 617 W/m² | - |
* Rain latest hour (hover to see other rain measurements)
** Current wind speed in m/s (hover to see current wind gust speed)